createdAt,value
2022-08-14T00:00:59.233Z,23.9
2022-08-14T00:06:01.589Z,23.8
2022-08-14T00:10:52.533Z,23.7
2022-08-14T00:21:01.333Z,23.6
2022-08-14T00:26:31.757Z,23.5
2022-08-14T00:31:14.089Z,23.4
2022-08-14T00:36:39.095Z,23.3
2022-08-14T00:42:54.945Z,23.2
2022-08-14T00:46:35.422Z,23.1
2022-08-14T00:51:41.241Z,23.0
2022-08-14T00:56:47.590Z,23.0
2022-08-14T01:01:44.023Z,22.9
2022-08-14T01:08:00.481Z,22.8
2022-08-14T01:12:07.675Z,22.7
2022-08-14T01:18:25.258Z,22.7
2022-08-14T01:22:43.777Z,22.6
2022-08-14T01:27:25.880Z,22.5
2022-08-14T01:32:52.453Z,22.5
2022-08-14T01:37:59.266Z,22.4
2022-08-14T01:45:40.217Z,22.3
2022-08-14T01:47:52.021Z,22.2
2022-08-14T01:53:22.442Z,22.2
2022-08-14T01:58:20.127Z,22.1
2022-08-14T02:08:22.533Z,22.0
2022-08-14T02:13:27.720Z,21.9
2022-08-14T02:18:34.135Z,21.8
2022-08-14T02:23:40.504Z,21.8
2022-08-14T02:28:57.438Z,21.7
2022-08-14T02:34:14.719Z,21.7
2022-08-14T02:38:59.934Z,21.6
2022-08-14T02:44:29.695Z,21.6
2022-08-14T02:49:12.689Z,21.5
2022-08-14T02:54:19.878Z,21.4
2022-08-14T02:59:49.523Z,21.4
2022-08-14T03:04:32.604Z,21.3
2022-08-14T03:09:42.191Z,21.2
2022-08-14T03:15:58.174Z,21.2
2022-08-14T03:19:51.454Z,21.1
2022-08-14T03:25:21.437Z,21.1
2022-08-14T03:30:05.412Z,21.0
2022-08-14T03:35:10.141Z,21.0
2022-08-14T03:40:18.280Z,20.9
2022-08-14T03:45:34.586Z,20.9
2022-08-14T03:55:35.752Z,20.8
2022-08-14T04:00:44.313Z,20.7
2022-08-14T04:05:49.362Z,20.7
2022-08-14T04:10:55.036Z,20.6
2022-08-14T04:16:04.801Z,20.6
2022-08-14T04:21:07.777Z,20.5
2022-08-14T04:26:26.848Z,20.4
2022-08-14T04:31:34.594Z,20.4
2022-08-14T04:36:27.544Z,20.3
2022-08-14T04:41:33.932Z,20.2
2022-08-14T04:46:55.528Z,20.2
2022-08-14T04:51:55.849Z,20.2
2022-08-14T04:56:54.348Z,20.1
2022-08-14T05:02:20.270Z,20.1
2022-08-14T05:07:06.584Z,20.0
2022-08-14T05:13:10.714Z,20.0
2022-08-14T05:17:19.372Z,20.0
2022-08-14T05:22:45.949Z,20.0
2022-08-14T05:28:44.243Z,20.0
2022-08-14T05:34:59.082Z,20.0
2022-08-14T05:38:10.852Z,20.0
2022-08-14T05:45:13.492Z,20.0
2022-08-14T05:47:57.700Z,20.0
2022-08-14T05:58:10.456Z,20.1
2022-08-14T06:03:16.824Z,20.2
2022-08-14T06:08:36.152Z,20.2
2022-08-14T06:13:31.626Z,20.3
2022-08-14T06:18:56.199Z,20.4
2022-08-14T06:23:42.603Z,20.5
2022-08-14T06:29:10.692Z,20.6
2022-08-14T06:35:03.968Z,20.7
2022-08-14T06:39:03.420Z,20.8
2022-08-14T06:46:34.003Z,20.9
2022-08-14T06:50:00.252Z,21.1
2022-08-14T06:54:22.549Z,21.2
2022-08-14T06:59:28.928Z,21.4
2022-08-14T07:04:35.321Z,21.5
2022-08-14T07:09:50.490Z,21.7
2022-08-14T07:14:48.380Z,21.8
2022-08-14T07:25:44.510Z,22.5
2022-08-14T07:36:27.930Z,22.8
2022-08-14T07:41:31.147Z,23.2
2022-08-14T07:46:11.088Z,24.0
2022-08-14T07:51:17.562Z,25.0
2022-08-14T07:56:47.627Z,25.9
2022-08-14T08:01:30.446Z,26.9
2022-08-14T08:06:26.824Z,27.9
2022-08-14T08:12:04.976Z,28.9
2022-08-14T08:16:51.279Z,29.9
2022-08-14T08:21:56.090Z,30.8
2022-08-14T08:27:26.519Z,31.7
2022-08-14T08:32:08.849Z,32.4
2022-08-14T08:37:19.250Z,33.2
2022-08-14T08:42:31.062Z,34.0
2022-08-14T08:47:18.037Z,34.6
2022-08-14T08:52:35.514Z,35.3
2022-08-14T08:57:42.008Z,35.8
2022-08-14T09:02:48.391Z,36.3
2022-08-14T09:07:56.422Z,36.9
2022-08-14T09:12:51.673Z,37.4
2022-08-14T09:18:07.655Z,37.9
2022-08-14T09:23:16.865Z,38.3
2022-08-14T09:28:20.525Z,38.7
2022-08-14T09:33:26.928Z,39.1
2022-08-14T09:38:34.610Z,39.5
2022-08-14T09:44:00.985Z,39.8
2022-08-14T09:48:37.297Z,40.1
2022-08-14T09:54:23.219Z,40.4
2022-08-14T09:59:00.168Z,40.8
2022-08-14T10:04:06.548Z,41.1
2022-08-14T10:09:16.598Z,41.4
2022-08-14T10:17:56.436Z,42.5
2022-08-14T10:23:21.945Z,42.4
2022-08-14T10:28:39.094Z,42.8
2022-08-14T10:33:07.657Z,43.0
2022-08-14T10:38:24.075Z,43.3
2022-08-14T10:43:31.713Z,43.5
2022-08-14T10:49:39.680Z,43.7
2022-08-14T10:53:33.924Z,43.8
2022-08-14T10:58:50.329Z,44.0
2022-08-14T11:06:49.361Z,44.2
2022-08-14T11:09:33.719Z,44.4
2022-08-14T11:14:22.779Z,44.5
2022-08-14T11:19:53.778Z,44.6
2022-08-14T11:24:57.871Z,44.7
2022-08-14T11:29:40.205Z,44.8
2022-08-14T11:37:40.579Z,44.9
2022-08-14T11:40:14.194Z,45.0
2022-08-14T11:45:24.561Z,45.0
2022-08-14T11:50:37.444Z,45.0
2022-08-14T11:55:58.513Z,45.0
2022-08-14T12:01:40.985Z,45.0
2022-08-14T12:15:12.947Z,44.9
2022-08-14T12:17:49.386Z,44.8
2022-08-14T12:22:52.614Z,44.6
2022-08-14T12:37:01.017Z,44.1
2022-08-14T12:42:34.810Z,44.0
2022-08-14T12:48:21.743Z,43.9
2022-08-14T12:53:06.423Z,43.7
2022-08-14T12:57:26.645Z,43.7
2022-08-14T13:02:56.802Z,43.6
2022-08-14T13:07:39.855Z,43.5
2022-08-14T13:15:40.153Z,43.4
2022-08-14T13:17:52.590Z,43.3
2022-08-14T13:22:58.975Z,43.3
2022-08-14T13:28:05.358Z,43.2
2022-08-14T13:33:14.994Z,43.0
2022-08-14T13:38:18.117Z,42.9
2022-08-14T13:43:14.575Z,42.7
2022-08-14T13:48:32.207Z,42.6
2022-08-14T13:53:38.049Z,42.3
2022-08-14T13:59:37.857Z,42.1
2022-08-14T14:03:54.128Z,42.0
2022-08-14T14:09:16.566Z,41.9
2022-08-14T14:24:05.592Z,41.3
2022-08-14T14:29:26.061Z,41.1
2022-08-14T14:34:49.364Z,40.9
2022-08-14T14:54:55.070Z,39.7
2022-08-14T15:05:10.905Z,39.1
2022-08-14T15:10:26.896Z,38.9
2022-08-14T15:25:27.543Z,38.1
2022-08-14T15:35:50.549Z,37.6
2022-08-14T15:40:51.484Z,37.4
2022-08-14T15:46:03.354Z,37.3
2022-08-14T15:51:09.858Z,37.1
2022-08-14T15:56:33.038Z,37.0
2022-08-14T16:01:43.523Z,36.8
2022-08-14T16:06:19.727Z,36.7
2022-08-14T16:11:36.861Z,36.5
2022-08-14T16:22:01.561Z,36.2
2022-08-14T16:27:41.560Z,36.0
2022-08-14T16:32:55.530Z,35.9
2022-08-14T16:37:34.276Z,35.7
2022-08-14T16:43:02.309Z,35.6
2022-08-14T16:47:22.595Z,35.5
2022-08-14T16:52:44.097Z,35.4
2022-08-14T16:59:57.714Z,35.2
2022-08-14T17:03:01.113Z,35.1
2022-08-14T17:07:52.760Z,34.9
2022-08-14T17:13:17.143Z,34.8
2022-08-14T17:18:30.816Z,34.6
2022-08-14T17:23:10.988Z,34.5
2022-08-14T17:28:50.593Z,34.3
2022-08-14T17:33:23.101Z,34.1
2022-08-14T17:38:38.643Z,33.9
2022-08-14T17:44:02.021Z,33.8
2022-08-14T17:49:10.593Z,33.6
2022-08-14T17:54:02.292Z,33.4
2022-08-14T18:04:27.697Z,33.1
2022-08-14T18:10:51.775Z,32.9
2022-08-14T18:14:32.324Z,32.7
2022-08-14T18:19:52.420Z,32.5
2022-08-14T18:24:38.854Z,32.4
2022-08-14T18:29:42.556Z,32.2
2022-08-14T18:40:02.181Z,31.9
2022-08-14T18:45:01.131Z,31.7
2022-08-14T18:50:31.500Z,31.5
2022-08-14T18:55:13.235Z,31.3
2022-08-14T19:00:09.587Z,31.1
2022-08-14T19:05:50.141Z,31.0
2022-08-14T19:10:37.528Z,30.7
2022-08-14T19:15:38.928Z,30.6
2022-08-14T19:21:45.662Z,30.4
2022-08-14T19:30:58.561Z,30.1
2022-08-14T19:36:04.960Z,29.9
2022-08-14T19:41:11.388Z,29.7
2022-08-14T19:47:40.957Z,29.5
2022-08-14T19:55:11.641Z,29.4
2022-08-14T19:57:58.859Z,29.0
2022-08-14T20:07:59.890Z,28.9
2022-08-14T20:12:57.441Z,28.8
2022-08-14T20:17:48.657Z,28.6
2022-08-14T20:23:38.234Z,28.4
2022-08-14T20:28:29.413Z,28.3
2022-08-14T20:33:22.844Z,28.2
2022-08-14T20:38:30.570Z,28.0
2022-08-14T20:43:35.628Z,27.9
2022-08-14T20:48:50.878Z,27.8
2022-08-14T20:58:43.425Z,27.5
2022-08-14T21:03:56.384Z,27.4
2022-08-14T21:09:03.599Z,27.3
2022-08-14T21:14:26.277Z,27.2
2022-08-14T21:19:36.496Z,27.1
2022-08-14T21:24:47.863Z,27.0
2022-08-14T21:29:29.214Z,27.0
2022-08-14T21:34:27.644Z,26.9
2022-08-14T21:51:00.213Z,26.7
2022-08-14T21:56:00.831Z,26.7
2022-08-14T22:01:10.493Z,26.7
2022-08-14T22:06:37.659Z,26.7
2022-08-14T22:11:40.047Z,26.6
2022-08-14T22:21:52.840Z,26.4
2022-08-14T22:27:03.338Z,26.4
2022-08-14T22:31:45.672Z,26.3
2022-08-14T22:36:52.206Z,26.2
2022-08-14T22:41:58.653Z,26.1
2022-08-14T22:47:25.352Z,26.0
2022-08-14T22:52:31.750Z,25.9
2022-08-14T22:57:17.959Z,25.8
2022-08-14T23:02:30.158Z,25.7
2022-08-14T23:08:58.942Z,25.7
2022-08-14T23:12:37.179Z,25.6
2022-08-14T23:17:43.545Z,25.5
2022-08-14T23:22:50.485Z,25.5
2022-08-14T23:28:03.924Z,25.3
2022-08-14T23:33:02.823Z,25.3
2022-08-14T23:38:29.793Z,25.2
2022-08-14T23:43:15.617Z,25.1
2022-08-14T23:48:24.853Z,25.0
2022-08-14T23:53:47.407Z,24.9
2022-08-14T23:58:29.306Z,24.8
